sensor_id;sensor_type;location;lat;lon;timestamp;temperature;humidity
20335;DHT22;10325;51.468;5.804;2023-06-14T00:00:44;27.00;42.10
20335;DHT22;10325;51.468;5.804;2023-06-14T00:03:18;27.00;41.80
20335;DHT22;10325;51.468;5.804;2023-06-14T00:05:50;27.00;41.80
20335;DHT22;10325;51.468;5.804;2023-06-14T00:08:21;27.00;41.70
20335;DHT22;10325;51.468;5.804;2023-06-14T00:10:51;27.00;41.70
20335;DHT22;10325;51.468;5.804;2023-06-14T00:13:22;26.90;41.80
20335;DHT22;10325;51.468;5.804;2023-06-14T00:15:54;26.90;41.80
20335;DHT22;10325;51.468;5.804;2023-06-14T00:18:23;26.90;41.70
20335;DHT22;10325;51.468;5.804;2023-06-14T00:21:11;26.90;41.60
20335;DHT22;10325;51.468;5.804;2023-06-14T00:23:39;26.90;41.60
20335;DHT22;10325;51.468;5.804;2023-06-14T00:26:11;26.80;41.60
20335;DHT22;10325;51.468;5.804;2023-06-14T00:28:44;26.80;41.90
20335;DHT22;10325;51.468;5.804;2023-06-14T00:31:26;26.80;42.00
20335;DHT22;10325;51.468;5.804;2023-06-14T00:33:55;26.80;42.10
20335;DHT22;10325;51.468;5.804;2023-06-14T00:36:21;26.80;42.10
20335;DHT22;10325;51.468;5.804;2023-06-14T00:38:57;26.80;41.90
20335;DHT22;10325;51.468;5.804;2023-06-14T00:41:26;26.80;41.90
20335;DHT22;10325;51.468;5.804;2023-06-14T00:43:56;26.70;41.50
20335;DHT22;10325;51.468;5.804;2023-06-14T00:46:27;26.80;41.50
20335;DHT22;10325;51.468;5.804;2023-06-14T00:48:58;26.70;41.70
20335;DHT22;10325;51.468;5.804;2023-06-14T00:51:26;26.70;41.40
20335;DHT22;10325;51.468;5.804;2023-06-14T00:53:57;26.70;41.50
20335;DHT22;10325;51.468;5.804;2023-06-14T00:56:24;26.70;41.40
20335;DHT22;10325;51.468;5.804;2023-06-14T00:58:52;26.70;41.40
20335;DHT22;10325;51.468;5.804;2023-06-14T01:01:21;26.60;41.50
20335;DHT22;10325;51.468;5.804;2023-06-14T01:03:52;26.60;41.30
20335;DHT22;10325;51.468;5.804;2023-06-14T01:09:35;26.60;41.20
20335;DHT22;10325;51.468;5.804;2023-06-14T01:14:56;26.60;41.30
20335;DHT22;10325;51.468;5.804;2023-06-14T01:17:25;26.50;41.40
20335;DHT22;10325;51.468;5.804;2023-06-14T01:19:58;26.50;41.30
20335;DHT22;10325;51.468;5.804;2023-06-14T01:22:29;26.50;41.60
20335;DHT22;10325;51.468;5.804;2023-06-14T01:25:00;26.50;41.10
20335;DHT22;10325;51.468;5.804;2023-06-14T01:27:30;26.40;41.00
20335;DHT22;10325;51.468;5.804;2023-06-14T01:30:03;26.40;41.00
20335;DHT22;10325;51.468;5.804;2023-06-14T01:32:46;26.40;41.20
20335;DHT22;10325;51.468;5.804;2023-06-14T01:35:16;26.40;41.10
20335;DHT22;10325;51.468;5.804;2023-06-14T01:37:47;26.40;41.10
20335;DHT22;10325;51.468;5.804;2023-06-14T01:40:19;26.40;40.80
20335;DHT22;10325;51.468;5.804;2023-06-14T01:42:50;26.30;40.60
20335;DHT22;10325;51.468;5.804;2023-06-14T01:45:20;26.30;40.90
20335;DHT22;10325;51.468;5.804;2023-06-14T01:47:50;26.30;41.10
20335;DHT22;10325;51.468;5.804;2023-06-14T01:50:22;26.30;40.90
20335;DHT22;10325;51.468;5.804;2023-06-14T01:52:52;26.30;41.00
20335;DHT22;10325;51.468;5.804;2023-06-14T01:55:22;26.30;41.00
20335;DHT22;10325;51.468;5.804;2023-06-14T01:57:55;26.20;40.70
20335;DHT22;10325;51.468;5.804;2023-06-14T02:00:26;26.20;40.80
20335;DHT22;10325;51.468;5.804;2023-06-14T02:02:58;26.20;40.60
20335;DHT22;10325;51.468;5.804;2023-06-14T02:05:25;26.20;40.70
20335;DHT22;10325;51.468;5.804;2023-06-14T02:07:55;26.10;40.40
20335;DHT22;10325;51.468;5.804;2023-06-14T02:10:29;26.10;40.50
20335;DHT22;10325;51.468;5.804;2023-06-14T02:12:57;26.10;40.50
20335;DHT22;10325;51.468;5.804;2023-06-14T02:15:27;26.10;40.60
20335;DHT22;10325;51.468;5.804;2023-06-14T02:18:09;26.10;40.70
20335;DHT22;10325;51.468;5.804;2023-06-14T02:20:36;26.00;40.60
20335;DHT22;10325;51.468;5.804;2023-06-14T02:23:03;26.00;41.40
20335;DHT22;10325;51.468;5.804;2023-06-14T02:25:37;26.00;40.80
20335;DHT22;10325;51.468;5.804;2023-06-14T02:28:08;26.00;40.90
20335;DHT22;10325;51.468;5.804;2023-06-14T02:30:39;26.00;41.00
20335;DHT22;10325;51.468;5.804;2023-06-14T02:33:12;26.00;41.00
20335;DHT22;10325;51.468;5.804;2023-06-14T02:35:44;26.00;41.10
20335;DHT22;10325;51.468;5.804;2023-06-14T02:38:14;26.00;41.00
20335;DHT22;10325;51.468;5.804;2023-06-14T02:40:45;26.00;40.90
20335;DHT22;10325;51.468;5.804;2023-06-14T02:43:12;26.00;41.10
20335;DHT22;10325;51.468;5.804;2023-06-14T02:45:45;26.00;41.20
20335;DHT22;10325;51.468;5.804;2023-06-14T02:48:14;25.90;40.80
20335;DHT22;10325;51.468;5.804;2023-06-14T02:50:43;25.90;40.80
20335;DHT22;10325;51.468;5.804;2023-06-14T02:53:13;26.00;40.80
20335;DHT22;10325;51.468;5.804;2023-06-14T02:55:43;25.90;40.60
20335;DHT22;10325;51.468;5.804;2023-06-14T02:58:14;25.90;40.70
20335;DHT22;10325;51.468;5.804;2023-06-14T03:00:44;25.90;40.60
20335;DHT22;10325;51.468;5.804;2023-06-14T03:03:15;25.90;40.80
20335;DHT22;10325;51.468;5.804;2023-06-14T03:05:47;25.90;40.80
20335;DHT22;10325;51.468;5.804;2023-06-14T03:08:20;25.80;40.90
20335;DHT22;10325;51.468;5.804;2023-06-14T03:10:59;25.80;40.90
20335;DHT22;10325;51.468;5.804;2023-06-14T03:13:28;25.80;40.90
20335;DHT22;10325;51.468;5.804;2023-06-14T03:16:01;25.80;41.10
20335;DHT22;10325;51.468;5.804;2023-06-14T03:18:32;25.80;41.10
20335;DHT22;10325;51.468;5.804;2023-06-14T03:21:04;25.80;40.90
20335;DHT22;10325;51.468;5.804;2023-06-14T03:23:34;25.80;40.80
20335;DHT22;10325;51.468;5.804;2023-06-14T03:26:03;25.80;41.00
20335;DHT22;10325;51.468;5.804;2023-06-14T03:28:34;25.80;41.10
20335;DHT22;10325;51.468;5.804;2023-06-14T03:31:02;25.80;40.90
20335;DHT22;10325;51.468;5.804;2023-06-14T03:33:32;25.80;40.90
20335;DHT22;10325;51.468;5.804;2023-06-14T03:35:59;25.70;40.70
20335;DHT22;10325;51.468;5.804;2023-06-14T03:38:31;25.80;40.80
20335;DHT22;10325;51.468;5.804;2023-06-14T03:41:00;25.80;40.90
20335;DHT22;10325;51.468;5.804;2023-06-14T03:43:29;25.80;40.90
20335;DHT22;10325;51.468;5.804;2023-06-14T03:46:01;25.70;40.90
20335;DHT22;10325;51.468;5.804;2023-06-14T03:48:30;25.70;40.90
20335;DHT22;10325;51.468;5.804;2023-06-14T03:51:00;25.70;40.80
20335;DHT22;10325;51.468;5.804;2023-06-14T03:53:30;25.70;40.80
20335;DHT22;10325;51.468;5.804;2023-06-14T03:55:59;25.70;40.80
20335;DHT22;10325;51.468;5.804;2023-06-14T03:58:29;25.60;40.80
20335;DHT22;10325;51.468;5.804;2023-06-14T04:00:59;25.60;40.90
20335;DHT22;10325;51.468;5.804;2023-06-14T04:03:31;25.60;41.00
20335;DHT22;10325;51.468;5.804;2023-06-14T04:06:00;25.60;41.10
20335;DHT22;10325;51.468;5.804;2023-06-14T04:08:31;25.60;41.10
20335;DHT22;10325;51.468;5.804;2023-06-14T04:11:02;25.60;41.10
20335;DHT22;10325;51.468;5.804;2023-06-14T04:13:30;25.60;41.10
20335;DHT22;10325;51.468;5.804;2023-06-14T04:16:00;25.60;40.90
20335;DHT22;10325;51.468;5.804;2023-06-14T04:18:27;25.60;41.00
20335;DHT22;10325;51.468;5.804;2023-06-14T04:20:58;25.60;40.90
20335;DHT22;10325;51.468;5.804;2023-06-14T04:23:30;25.60;40.90
20335;DHT22;10325;51.468;5.804;2023-06-14T04:26:00;25.60;40.90
20335;DHT22;10325;51.468;5.804;2023-06-14T04:28:31;25.60;40.70
20335;DHT22;10325;51.468;5.804;2023-06-14T04:31:09;25.50;41.30
20335;DHT22;10325;51.468;5.804;2023-06-14T04:33:42;25.50;41.00
20335;DHT22;10325;51.468;5.804;2023-06-14T04:36:16;25.60;41.10
20335;DHT22;10325;51.468;5.804;2023-06-14T04:38:48;25.60;41.10
20335;DHT22;10325;51.468;5.804;2023-06-14T04:41:20;25.50;40.90
20335;DHT22;10325;51.468;5.804;2023-06-14T04:43:49;25.50;40.80
20335;DHT22;10325;51.468;5.804;2023-06-14T04:46:20;25.50;40.90
20335;DHT22;10325;51.468;5.804;2023-06-14T04:48:51;25.40;40.80
20335;DHT22;10325;51.468;5.804;2023-06-14T04:51:19;25.50;40.80
20335;DHT22;10325;51.468;5.804;2023-06-14T04:53:49;25.40;40.90
20335;DHT22;10325;51.468;5.804;2023-06-14T04:56:37;25.40;40.90
20335;DHT22;10325;51.468;5.804;2023-06-14T04:59:06;25.40;40.90
20335;DHT22;10325;51.468;5.804;2023-06-14T05:01:36;25.40;41.30
20335;DHT22;10325;51.468;5.804;2023-06-14T05:04:06;25.40;41.80
20335;DHT22;10325;51.468;5.804;2023-06-14T05:06:33;25.40;42.20
20335;DHT22;10325;51.468;5.804;2023-06-14T05:09:03;25.50;42.20
20335;DHT22;10325;51.468;5.804;2023-06-14T05:11:33;25.60;42.50
20335;DHT22;10325;51.468;5.804;2023-06-14T05:14:03;25.50;42.40
20335;DHT22;10325;51.468;5.804;2023-06-14T05:16:34;25.60;42.40
20335;DHT22;10325;51.468;5.804;2023-06-14T05:19:02;25.60;42.40
20335;DHT22;10325;51.468;5.804;2023-06-14T05:21:33;25.60;42.30
20335;DHT22;10325;51.468;5.804;2023-06-14T05:24:11;25.70;42.40
20335;DHT22;10325;51.468;5.804;2023-06-14T05:26:40;25.70;42.40
20335;DHT22;10325;51.468;5.804;2023-06-14T05:29:07;25.70;42.40
20335;DHT22;10325;51.468;5.804;2023-06-14T05:31:39;25.70;42.40
20335;DHT22;10325;51.468;5.804;2023-06-14T05:34:08;25.70;42.30
20335;DHT22;10325;51.468;5.804;2023-06-14T05:36:37;25.70;42.30
20335;DHT22;10325;51.468;5.804;2023-06-14T05:39:06;25.70;42.40
20335;DHT22;10325;51.468;5.804;2023-06-14T05:41:37;25.80;42.50
20335;DHT22;10325;51.468;5.804;2023-06-14T05:44:08;25.80;42.50
20335;DHT22;10325;51.468;5.804;2023-06-14T05:46:38;25.80;42.50
20335;DHT22;10325;51.468;5.804;2023-06-14T05:49:10;25.80;42.50
20335;DHT22;10325;51.468;5.804;2023-06-14T05:51:42;25.80;42.60
20335;DHT22;10325;51.468;5.804;2023-06-14T05:54:11;25.80;42.60
20335;DHT22;10325;51.468;5.804;2023-06-14T05:56:41;25.90;42.70
20335;DHT22;10325;51.468;5.804;2023-06-14T05:59:10;25.90;42.70
20335;DHT22;10325;51.468;5.804;2023-06-14T06:01:38;25.90;42.70
20335;DHT22;10325;51.468;5.804;2023-06-14T06:04:10;25.90;42.70
20335;DHT22;10325;51.468;5.804;2023-06-14T06:06:38;25.90;42.70
20335;DHT22;10325;51.468;5.804;2023-06-14T06:09:12;25.90;42.70
20335;DHT22;10325;51.468;5.804;2023-06-14T06:11:45;26.00;42.80
20335;DHT22;10325;51.468;5.804;2023-06-14T06:14:22;26.00;42.70
20335;DHT22;10325;51.468;5.804;2023-06-14T06:16:49;26.00;42.70
20335;DHT22;10325;51.468;5.804;2023-06-14T06:19:19;26.00;42.80
20335;DHT22;10325;51.468;5.804;2023-06-14T06:21:52;26.00;42.70
20335;DHT22;10325;51.468;5.804;2023-06-14T06:24:22;26.00;42.70
20335;DHT22;10325;51.468;5.804;2023-06-14T06:26:52;26.00;42.70
20335;DHT22;10325;51.468;5.804;2023-06-14T06:29:21;26.00;42.70
20335;DHT22;10325;51.468;5.804;2023-06-14T06:31:51;26.00;42.70
20335;DHT22;10325;51.468;5.804;2023-06-14T06:34:19;26.10;42.70
20335;DHT22;10325;51.468;5.804;2023-06-14T06:36:47;26.00;42.60
20335;DHT22;10325;51.468;5.804;2023-06-14T06:39:23;26.10;42.70
20335;DHT22;10325;51.468;5.804;2023-06-14T06:41:54;26.10;42.60
20335;DHT22;10325;51.468;5.804;2023-06-14T06:44:23;26.10;42.70
20335;DHT22;10325;51.468;5.804;2023-06-14T06:46:54;26.20;42.70
20335;DHT22;10325;51.468;5.804;2023-06-14T06:49:25;26.20;42.70
20335;DHT22;10325;51.468;5.804;2023-06-14T06:51:59;26.20;42.60
20335;DHT22;10325;51.468;5.804;2023-06-14T06:54:33;26.20;42.60
20335;DHT22;10325;51.468;5.804;2023-06-14T06:57:05;26.30;42.70
20335;DHT22;10325;51.468;5.804;2023-06-14T06:59:33;26.30;42.70
20335;DHT22;10325;51.468;5.804;2023-06-14T07:02:02;26.30;42.60
20335;DHT22;10325;51.468;5.804;2023-06-14T07:04:35;26.30;42.60
20335;DHT22;10325;51.468;5.804;2023-06-14T07:07:03;26.30;42.60
20335;DHT22;10325;51.468;5.804;2023-06-14T07:09:32;26.30;42.60
20335;DHT22;10325;51.468;5.804;2023-06-14T07:12:03;26.30;42.70
20335;DHT22;10325;51.468;5.804;2023-06-14T07:14:32;26.30;42.70
20335;DHT22;10325;51.468;5.804;2023-06-14T07:17:03;26.30;42.60
20335;DHT22;10325;51.468;5.804;2023-06-14T07:19:31;26.40;42.70
20335;DHT22;10325;51.468;5.804;2023-06-14T07:22:01;26.40;42.70
20335;DHT22;10325;51.468;5.804;2023-06-14T07:24:30;26.40;42.70
20335;DHT22;10325;51.468;5.804;2023-06-14T07:27:00;26.30;42.70
20335;DHT22;10325;51.468;5.804;2023-06-14T07:29:28;26.40;43.00
20335;DHT22;10325;51.468;5.804;2023-06-14T07:32:03;26.40;43.30
20335;DHT22;10325;51.468;5.804;2023-06-14T07:34:33;26.40;43.50
20335;DHT22;10325;51.468;5.804;2023-06-14T07:37:03;26.40;43.70
20335;DHT22;10325;51.468;5.804;2023-06-14T07:39:34;26.40;43.90
20335;DHT22;10325;51.468;5.804;2023-06-14T07:42:05;26.40;44.00
20335;DHT22;10325;51.468;5.804;2023-06-14T07:44:35;26.40;44.10
20335;DHT22;10325;51.468;5.804;2023-06-14T07:47:06;26.40;44.20
20335;DHT22;10325;51.468;5.804;2023-06-14T07:49:36;26.40;44.30
20335;DHT22;10325;51.468;5.804;2023-06-14T07:52:04;26.40;44.30
20335;DHT22;10325;51.468;5.804;2023-06-14T07:54:38;26.50;44.80
20335;DHT22;10325;51.468;5.804;2023-06-14T07:57:08;26.50;45.10
20335;DHT22;10325;51.468;5.804;2023-06-14T07:59:39;26.50;45.00
20335;DHT22;10325;51.468;5.804;2023-06-14T08:02:09;26.50;45.00
20335;DHT22;10325;51.468;5.804;2023-06-14T08:04:36;26.50;45.10
20335;DHT22;10325;51.468;5.804;2023-06-14T08:07:05;26.50;45.20
20335;DHT22;10325;51.468;5.804;2023-06-14T08:09:35;26.50;45.30
20335;DHT22;10325;51.468;5.804;2023-06-14T08:12:09;26.60;45.40
20335;DHT22;10325;51.468;5.804;2023-06-14T08:14:43;26.60;45.40
20335;DHT22;10325;51.468;5.804;2023-06-14T08:17:11;26.60;45.50
20335;DHT22;10325;51.468;5.804;2023-06-14T08:19:41;26.60;45.60
20335;DHT22;10325;51.468;5.804;2023-06-14T08:22:10;26.60;45.60
20335;DHT22;10325;51.468;5.804;2023-06-14T08:24:39;26.60;45.60
20335;DHT22;10325;51.468;5.804;2023-06-14T08:27:09;26.60;45.70
20335;DHT22;10325;51.468;5.804;2023-06-14T08:29:37;26.60;45.70
20335;DHT22;10325;51.468;5.804;2023-06-14T08:32:09;26.60;45.70
20335;DHT22;10325;51.468;5.804;2023-06-14T08:34:39;26.60;45.80
20335;DHT22;10325;51.468;5.804;2023-06-14T08:37:10;26.70;45.80
20335;DHT22;10325;51.468;5.804;2023-06-14T08:39:41;26.70;45.80
20335;DHT22;10325;51.468;5.804;2023-06-14T08:42:10;26.70;45.80
20335;DHT22;10325;51.468;5.804;2023-06-14T08:44:50;26.70;45.80
20335;DHT22;10325;51.468;5.804;2023-06-14T08:47:22;26.70;45.80
20335;DHT22;10325;51.468;5.804;2023-06-14T08:49:53;26.70;45.90
20335;DHT22;10325;51.468;5.804;2023-06-14T08:52:24;26.70;45.90
20335;DHT22;10325;51.468;5.804;2023-06-14T08:55:00;26.70;45.80
20335;DHT22;10325;51.468;5.804;2023-06-14T08:57:32;26.70;45.80
20335;DHT22;10325;51.468;5.804;2023-06-14T09:00:05;26.70;45.70
20335;DHT22;10325;51.468;5.804;2023-06-14T09:02:53;26.70;45.70
20335;DHT22;10325;51.468;5.804;2023-06-14T09:05:30;26.80;45.60
20335;DHT22;10325;51.468;5.804;2023-06-14T09:07:59;26.70;45.90
20335;DHT22;10325;51.468;5.804;2023-06-14T09:10:32;26.80;46.10
20335;DHT22;10325;51.468;5.804;2023-06-14T09:13:06;26.80;46.00
20335;DHT22;10325;51.468;5.804;2023-06-14T09:15:36;26.80;46.30
20335;DHT22;10325;51.468;5.804;2023-06-14T09:18:05;26.80;46.30
20335;DHT22;10325;51.468;5.804;2023-06-14T09:20:40;26.80;46.30
20335;DHT22;10325;51.468;5.804;2023-06-14T09:23:07;26.80;46.30
20335;DHT22;10325;51.468;5.804;2023-06-14T09:25:43;26.80;46.20
20335;DHT22;10325;51.468;5.804;2023-06-14T09:28:13;26.80;46.10
20335;DHT22;10325;51.468;5.804;2023-06-14T09:30:40;26.90;46.00
20335;DHT22;10325;51.468;5.804;2023-06-14T09:33:10;26.90;45.90
20335;DHT22;10325;51.468;5.804;2023-06-14T09:35:40;26.90;45.70
20335;DHT22;10325;51.468;5.804;2023-06-14T09:38:16;26.90;45.60
20335;DHT22;10325;51.468;5.804;2023-06-14T09:40:45;26.90;45.50
20335;DHT22;10325;51.468;5.804;2023-06-14T09:43:23;26.90;45.50
20335;DHT22;10325;51.468;5.804;2023-06-14T09:45:51;27.00;45.50
20335;DHT22;10325;51.468;5.804;2023-06-14T09:48:22;27.00;45.60
20335;DHT22;10325;51.468;5.804;2023-06-14T09:50:50;27.00;45.50
20335;DHT22;10325;51.468;5.804;2023-06-14T09:53:21;27.00;45.90
20335;DHT22;10325;51.468;5.804;2023-06-14T09:55:55;27.10;46.40
20335;DHT22;10325;51.468;5.804;2023-06-14T09:58:27;27.10;46.10
20335;DHT22;10325;51.468;5.804;2023-06-14T10:00:58;27.10;46.00
20335;DHT22;10325;51.468;5.804;2023-06-14T10:03:30;27.10;46.00
20335;DHT22;10325;51.468;5.804;2023-06-14T10:06:18;27.10;46.10
20335;DHT22;10325;51.468;5.804;2023-06-14T10:08:50;27.20;46.00
20335;DHT22;10325;51.468;5.804;2023-06-14T10:11:21;27.20;46.70
20335;DHT22;10325;51.468;5.804;2023-06-14T10:13:48;27.20;46.00
20335;DHT22;10325;51.468;5.804;2023-06-14T10:19:13;27.20;45.90
20335;DHT22;10325;51.468;5.804;2023-06-14T10:24:20;27.30;45.50
20335;DHT22;10325;51.468;5.804;2023-06-14T10:26:51;27.30;45.50
20335;DHT22;10325;51.468;5.804;2023-06-14T10:32:53;27.30;45.50
20335;DHT22;10325;51.468;5.804;2023-06-14T10:35:33;27.30;45.50
20335;DHT22;10325;51.468;5.804;2023-06-14T10:38:06;27.30;45.40
20335;DHT22;10325;51.468;5.804;2023-06-14T10:40:37;27.40;45.50
20335;DHT22;10325;51.468;5.804;2023-06-14T10:43:23;27.40;45.50
20335;DHT22;10325;51.468;5.804;2023-06-14T10:48:42;27.40;45.50
20335;DHT22;10325;51.468;5.804;2023-06-14T10:51:20;27.40;45.50
20335;DHT22;10325;51.468;5.804;2023-06-14T10:53:49;27.40;45.50
20335;DHT22;10325;51.468;5.804;2023-06-14T10:56:30;27.40;45.30
20335;DHT22;10325;51.468;5.804;2023-06-14T10:59:00;27.40;45.30
20335;DHT22;10325;51.468;5.804;2023-06-14T11:01:41;27.50;45.40
20335;DHT22;10325;51.468;5.804;2023-06-14T11:04:14;27.50;45.40
20335;DHT22;10325;51.468;5.804;2023-06-14T11:06:50;27.50;46.10
20335;DHT22;10325;51.468;5.804;2023-06-14T11:09:38;27.50;45.50
20335;DHT22;10325;51.468;5.804;2023-06-14T11:12:22;27.50;45.50
20335;DHT22;10325;51.468;5.804;2023-06-14T11:14:52;27.50;45.50
20335;DHT22;10325;51.468;5.804;2023-06-14T11:17:21;27.50;45.60
20335;DHT22;10325;51.468;5.804;2023-06-14T11:20:06;27.60;45.60
20335;DHT22;10325;51.468;5.804;2023-06-14T11:22:45;27.60;46.30
20335;DHT22;10325;51.468;5.804;2023-06-14T11:25:15;27.60;45.70
20335;DHT22;10325;51.468;5.804;2023-06-14T11:27:45;27.60;45.70
20335;DHT22;10325;51.468;5.804;2023-06-14T11:30:16;27.60;45.70
20335;DHT22;10325;51.468;5.804;2023-06-14T11:32:50;27.70;45.70
20335;DHT22;10325;51.468;5.804;2023-06-14T11:35:26;27.70;45.70
20335;DHT22;10325;51.468;5.804;2023-06-14T11:37:56;27.70;45.70
20335;DHT22;10325;51.468;5.804;2023-06-14T11:40:32;27.70;45.70
20335;DHT22;10325;51.468;5.804;2023-06-14T11:43:02;27.70;45.60
20335;DHT22;10325;51.468;5.804;2023-06-14T11:45:29;27.70;45.70
20335;DHT22;10325;51.468;5.804;2023-06-14T11:47:58;27.80;45.70
20335;DHT22;10325;51.468;5.804;2023-06-14T11:50:37;27.80;45.70
20335;DHT22;10325;51.468;5.804;2023-06-14T11:53:06;27.80;45.70
20335;DHT22;10325;51.468;5.804;2023-06-14T11:55:38;27.80;45.80
20335;DHT22;10325;51.468;5.804;2023-06-14T11:58:10;27.80;45.80
20335;DHT22;10325;51.468;5.804;2023-06-14T12:00:38;27.80;45.80
20335;DHT22;10325;51.468;5.804;2023-06-14T12:03:07;27.90;45.90
20335;DHT22;10325;51.468;5.804;2023-06-14T12:05:36;27.90;45.90
20335;DHT22;10325;51.468;5.804;2023-06-14T12:08:05;27.90;45.90
20335;DHT22;10325;51.468;5.804;2023-06-14T12:10:41;27.90;45.80
20335;DHT22;10325;51.468;5.804;2023-06-14T12:13:28;27.90;45.80
20335;DHT22;10325;51.468;5.804;2023-06-14T12:16:03;27.90;45.70
20335;DHT22;10325;51.468;5.804;2023-06-14T12:18:35;27.90;45.60
20335;DHT22;10325;51.468;5.804;2023-06-14T12:21:07;28.00;45.60
20335;DHT22;10325;51.468;5.804;2023-06-14T12:23:47;28.00;45.40
20335;DHT22;10325;51.468;5.804;2023-06-14T12:26:18;28.00;45.40
20335;DHT22;10325;51.468;5.804;2023-06-14T12:28:47;28.00;45.40
20335;DHT22;10325;51.468;5.804;2023-06-14T12:31:23;28.10;45.30
20335;DHT22;10325;51.468;5.804;2023-06-14T12:33:55;28.00;45.20
20335;DHT22;10325;51.468;5.804;2023-06-14T12:36:25;28.10;45.40
20335;DHT22;10325;51.468;5.804;2023-06-14T12:38:53;28.10;45.40
20335;DHT22;10325;51.468;5.804;2023-06-14T12:41:24;28.10;45.40
20335;DHT22;10325;51.468;5.804;2023-06-14T12:43:53;28.10;45.40
20335;DHT22;10325;51.468;5.804;2023-06-14T12:46:20;28.10;45.50
20335;DHT22;10325;51.468;5.804;2023-06-14T12:48:50;28.20;45.70
20335;DHT22;10325;51.468;5.804;2023-06-14T12:51:20;28.20;45.80
20335;DHT22;10325;51.468;5.804;2023-06-14T12:53:54;28.20;45.90
20335;DHT22;10325;51.468;5.804;2023-06-14T12:56:25;28.20;45.70
20335;DHT22;10325;51.468;5.804;2023-06-14T12:58:58;28.30;45.70
20335;DHT22;10325;51.468;5.804;2023-06-14T13:01:28;28.30;45.70
20335;DHT22;10325;51.468;5.804;2023-06-14T13:03:57;28.30;46.00
20335;DHT22;10325;51.468;5.804;2023-06-14T13:06:29;28.30;46.00
20335;DHT22;10325;51.468;5.804;2023-06-14T13:09:02;28.30;46.10
20335;DHT22;10325;51.468;5.804;2023-06-14T13:11:32;28.30;46.30
20335;DHT22;10325;51.468;5.804;2023-06-14T13:14:02;28.40;46.60
20335;DHT22;10325;51.468;5.804;2023-06-14T13:16:49;28.40;47.20
20335;DHT22;10325;51.468;5.804;2023-06-14T13:19:21;28.50;47.50
20335;DHT22;10325;51.468;5.804;2023-06-14T13:21:50;28.50;47.60
20335;DHT22;10325;51.468;5.804;2023-06-14T13:24:20;28.60;47.60
20335;DHT22;10325;51.468;5.804;2023-06-14T13:27:03;28.60;47.70
20335;DHT22;10325;51.468;5.804;2023-06-14T13:29:32;28.60;47.90
20335;DHT22;10325;51.468;5.804;2023-06-14T13:32:05;28.70;48.10
20335;DHT22;10325;51.468;5.804;2023-06-14T13:34:34;28.70;48.30
20335;DHT22;10325;51.468;5.804;2023-06-14T13:37:04;28.80;48.30
20335;DHT22;10325;51.468;5.804;2023-06-14T13:39:34;28.80;48.40
20335;DHT22;10325;51.468;5.804;2023-06-14T13:42:03;28.80;48.20
20335;DHT22;10325;51.468;5.804;2023-06-14T13:44:32;28.90;48.10
20335;DHT22;10325;51.468;5.804;2023-06-14T13:47:02;28.90;48.30
20335;DHT22;10325;51.468;5.804;2023-06-14T13:49:30;28.90;48.20
20335;DHT22;10325;51.468;5.804;2023-06-14T13:52:02;29.00;48.40
20335;DHT22;10325;51.468;5.804;2023-06-14T13:54:30;29.00;48.50
20335;DHT22;10325;51.468;5.804;2023-06-14T13:56:58;29.10;48.70
20335;DHT22;10325;51.468;5.804;2023-06-14T13:59:29;29.10;48.70
20335;DHT22;10325;51.468;5.804;2023-06-14T14:01:58;29.10;48.70
20335;DHT22;10325;51.468;5.804;2023-06-14T14:04:28;29.20;48.60
20335;DHT22;10325;51.468;5.804;2023-06-14T14:07:01;29.20;48.60
20335;DHT22;10325;51.468;5.804;2023-06-14T14:09:37;29.20;48.50
20335;DHT22;10325;51.468;5.804;2023-06-14T14:12:08;29.20;48.20
20335;DHT22;10325;51.468;5.804;2023-06-14T14:14:38;29.30;48.00
20335;DHT22;10325;51.468;5.804;2023-06-14T14:17:06;29.30;47.80
20335;DHT22;10325;51.468;5.804;2023-06-14T14:19:36;29.30;47.50
20335;DHT22;10325;51.468;5.804;2023-06-14T14:22:05;29.30;47.30
20335;DHT22;10325;51.468;5.804;2023-06-14T14:24:49;29.30;47.10
20335;DHT22;10325;51.468;5.804;2023-06-14T14:27:18;29.30;47.00
20335;DHT22;10325;51.468;5.804;2023-06-14T14:29:47;29.40;47.00
20335;DHT22;10325;51.468;5.804;2023-06-14T14:32:18;29.40;47.00
20335;DHT22;10325;51.468;5.804;2023-06-14T14:34:47;29.40;47.00
20335;DHT22;10325;51.468;5.804;2023-06-14T14:37:17;29.40;46.90
20335;DHT22;10325;51.468;5.804;2023-06-14T14:39:45;29.40;46.90
20335;DHT22;10325;51.468;5.804;2023-06-14T14:42:16;29.40;46.80
20335;DHT22;10325;51.468;5.804;2023-06-14T14:44:46;29.40;46.60
20335;DHT22;10325;51.468;5.804;2023-06-14T14:47:15;29.40;46.40
20335;DHT22;10325;51.468;5.804;2023-06-14T14:49:44;29.40;46.50
20335;DHT22;10325;51.468;5.804;2023-06-14T14:52:18;29.40;46.40
20335;DHT22;10325;51.468;5.804;2023-06-14T14:54:51;29.40;46.40
20335;DHT22;10325;51.468;5.804;2023-06-14T14:57:24;29.40;46.30
20335;DHT22;10325;51.468;5.804;2023-06-14T14:59:53;29.40;46.20
20335;DHT22;10325;51.468;5.804;2023-06-14T15:02:23;29.50;46.30
20335;DHT22;10325;51.468;5.804;2023-06-14T15:04:52;29.50;46.20
20335;DHT22;10325;51.468;5.804;2023-06-14T15:07:21;29.50;46.20
20335;DHT22;10325;51.468;5.804;2023-06-14T15:09:51;29.50;46.10
20335;DHT22;10325;51.468;5.804;2023-06-14T15:12:19;29.50;46.10
20335;DHT22;10325;51.468;5.804;2023-06-14T15:14:56;29.50;46.10
20335;DHT22;10325;51.468;5.804;2023-06-14T15:17:26;29.50;46.00
20335;DHT22;10325;51.468;5.804;2023-06-14T15:19:56;29.50;45.90
20335;DHT22;10325;51.468;5.804;2023-06-14T15:22:25;29.50;45.80
20335;DHT22;10325;51.468;5.804;2023-06-14T15:24:54;29.50;45.80
20335;DHT22;10325;51.468;5.804;2023-06-14T15:27:24;29.60;45.90
20335;DHT22;10325;51.468;5.804;2023-06-14T15:29:53;29.60;45.90
20335;DHT22;10325;51.468;5.804;2023-06-14T15:32:26;29.60;45.60
20335;DHT22;10325;51.468;5.804;2023-06-14T15:35:05;29.60;45.70
20335;DHT22;10325;51.468;5.804;2023-06-14T15:37:33;29.60;45.10
20335;DHT22;10325;51.468;5.804;2023-06-14T15:40:02;29.60;45.60
20335;DHT22;10325;51.468;5.804;2023-06-14T15:42:33;29.60;45.50
20335;DHT22;10325;51.468;5.804;2023-06-14T15:45:00;29.60;45.50
20335;DHT22;10325;51.468;5.804;2023-06-14T15:47:30;29.60;45.50
20335;DHT22;10325;51.468;5.804;2023-06-14T15:50:00;29.60;45.50
20335;DHT22;10325;51.468;5.804;2023-06-14T15:52:29;29.60;45.50
20335;DHT22;10325;51.468;5.804;2023-06-14T15:54:59;29.60;45.40
20335;DHT22;10325;51.468;5.804;2023-06-14T15:57:29;29.60;46.10
20335;DHT22;10325;51.468;5.804;2023-06-14T15:59:57;29.70;45.30
20335;DHT22;10325;51.468;5.804;2023-06-14T16:02:26;29.70;45.30
20335;DHT22;10325;51.468;5.804;2023-06-14T16:04:56;29.70;45.20
20335;DHT22;10325;51.468;5.804;2023-06-14T16:07:26;29.60;45.20
20335;DHT22;10325;51.468;5.804;2023-06-14T16:09:54;29.60;45.40
20335;DHT22;10325;51.468;5.804;2023-06-14T16:12:25;29.70;45.20